Thunder radar more information blitzortung!


Radar de pluja more information rain snow radar


Visita la nostra xarxa de llocs de meteo:

Template documentation
and downloads

And another site



No particular awareness of the weather is required.    There are no Weather-warnings

Pagina Historial Weather Underground text

Diari Resum Marc 12, 2016 Unitats:  Mètric    Imperial   Tant
« Previous Dia
SegĂźent Dia »
Diari Setmana Mensual Anual Personalitzada
  Maxima: Minima: Media:
Temperatura: -17.8 °C -14.1 °C -11 °C
Punt de rosada: -17.8 °C -18.2 °C -17.5 °C
Humitat: Humidity % 32 % 45 %
Wind Speed: 0 km/h 0 km/h 10.8 km/h
RĂ fegues de vent: 0 km/h - -
Vent:- - South
Pression baro: 0 hPa 34533.8 hPa -
Precipitacions: 0 mm    
Historical Graphs
 
 
Dades de taula per Marc 12, 2016
Temps Temperatura Punt de rosada Pression baro Vent Wind Speed RĂ fegues de vent Humitat Rainfall Rate (Hourly)
-17.8 °C -17.8 °C 0 hPa Calm     Humidity % 0 mm
11:33 -11.3 °C -16.8 °C 34669.3 hPa ENE 6 km/h 6 km/h 51 % 0 mm
11:38 -11.2 °C -16.7 °C 34669.3 hPa ENE 9 km/h 9 km/h 51 % 0 mm
11:43 -11.1 °C -16.6 °C 34669.3 hPa NNE 9 km/h 9 km/h 51 % 0 mm
11:48 -11 °C -16.6 °C 34669.3 hPa SE 9 km/h 9 km/h 50 % 0 mm
11:53 -11 °C -16.6 °C 34669.3 hPa ESE 11.9 km/h 11.9 km/h 50 % 0 mm
11:58 -11 °C -16.6 °C 34635.4 hPa ENE 9 km/h 9 km/h 50 % 0 mm
12:08 -10.9 °C -16.7 °C 34635.4 hPa East 16.1 km/h 16.1 km/h 49 % 0 mm
12:13 -11.1 °C -17 °C 34601.5 hPa ESE 15 km/h 15 km/h 48 % 0 mm
12:18 -11 °C -16.9 °C 34601.5 hPa East 11.9 km/h 11.9 km/h 48 % 0 mm
12:23 -10.7 °C -16.5 °C 34601.5 hPa SSW 11.9 km/h 11.9 km/h 49 % 0 mm
12:28 -10.4 °C -16.3 °C 34567.7 hPa WSW 9 km/h 9 km/h 49 % 0 mm
12:33 -10.3 °C -16.3 °C 34567.7 hPa East 6.3 km/h 6.3 km/h 48 % 0 mm
12:38 -10.6 °C -16.7 °C 34567.7 hPa NNE 11.9 km/h 11.9 km/h 47 % 0 mm
12:43 -10.5 °C -16.6 °C 34601.5 hPa NNE 9 km/h 9 km/h 47 % 0 mm
12:48 -10.6 °C -16.8 °C 34601.5 hPa East 9 km/h 9 km/h 47 % 0 mm
12:53 -10.3 °C -16.5 °C 34601.5 hPa ENE 11.9 km/h 11.9 km/h 47 % 0 mm
12:58 -10.5 °C -16.8 °C 34567.7 hPa ESE 6 km/h 6.3 km/h 46 % 0 mm
13:03 -10.3 °C -16.6 °C 34567.7 hPa ESE 15 km/h 15 km/h 46 % 0 mm
13:08 -9.9 °C -16.3 °C 34567.7 hPa ESE 11.9 km/h 11.9 km/h 46 % 0 mm
13:13 -9.8 °C -16.2 °C 34533.8 hPa East 7.6 km/h 7.6 km/h 46 % 0 mm
13:18 -9.8 °C -16.2 °C 34533.8 hPa ENE 17.9 km/h 17.9 km/h 46 % 0 mm
13:23 -10.1 °C -16.6 °C 34533.8 hPa North 20.9 km/h 20.9 km/h 45 % 0 mm
13:28 -9.7 °C -16.2 °C 34533.8 hPa WNW 6 km/h 6 km/h 45 % 0 mm
13:33 -9.3 °C -16.3 °C 34533.8 hPa WSW 11.9 km/h 11.9 km/h 43 % 0 mm
13:38 -9.3 °C -16.6 °C 34533.8 hPa NNE 20.9 km/h 20.9 km/h 41 % 0 mm
13:43 -9.7 °C -16.9 °C 34567.7 hPa NNE 15 km/h 15 km/h 41 % 0 mm
13:48 -9.8 °C -17.1 °C 34567.7 hPa NE 11.9 km/h 11.9 km/h 41 % 0 mm
13:53 -9.7 °C -17.2 °C 34567.7 hPa NNE 15 km/h 15 km/h 40 % 0 mm
13:58 -9.7 °C -17.2 °C 34533.8 hPa ESE 6 km/h 6.3 km/h 40 % 0 mm
14:08 -9.2 °C -16.7 °C 34533.8 hPa NW 11.9 km/h 11.9 km/h 40 % 0 mm
14:13 -8.9 °C -16.6 °C 34533.8 hPa ENE 9 km/h 9 km/h 39 % 0 mm
14:18 -9.2 °C -17.3 °C 34533.8 hPa ENE 11.9 km/h 11.9 km/h 37 % 0 mm
14:23 -9.1 °C -17.1 °C 34533.8 hPa West 11.9 km/h 11.9 km/h 38 % 0 mm
14:28 -8.9 °C -17.1 °C 34533.8 hPa WSW 11.9 km/h 11.9 km/h 37 % 0 mm
14:33 -9.1 °C -17.7 °C 34533.8 hPa South 15 km/h 15 km/h 35 % 0 mm
14:38 -8.9 °C -17.6 °C 34533.8 hPa WSW 11.9 km/h 11.9 km/h 35 % 0 mm
14:43 -8.8 °C -17.4 °C 34533.8 hPa WSW 15 km/h 15 km/h 35 % 0 mm
14:48 -8.9 °C -17.7 °C 34533.8 hPa WNW 15 km/h 15 km/h 34 % 0 mm
14:53 -8.9 °C -17.7 °C 34533.8 hPa SE 6.8 km/h 6.8 km/h 34 % 0 mm
14:58 -8.6 °C -17.4 °C 34533.8 hPa SW 11.9 km/h 11.9 km/h 34 % 0 mm
15:03 -8.7 °C -17.5 °C 34533.8 hPa ESE 6 km/h 6 km/h 34 % 0 mm
15:08 -8.7 °C -17.8 °C 34533.8 hPa SSW 20.9 km/h 20.9 km/h 33 % 0 mm
15:13 -8.6 °C -17.4 °C 34533.8 hPa ENE 6 km/h 6 km/h 34 % 0 mm
15:18 -8.6 °C -17.4 °C 34533.8 hPa South 6 km/h 6 km/h 34 % 0 mm
15:23 -8.6 °C -17.4 °C 34533.8 hPa SW 15 km/h 15 km/h 34 % 0 mm
15:28 -8.6 °C -17.4 °C 34533.8 hPa SSW 6.3 km/h 6.3 km/h 34 % 0 mm
15:33 -8.4 °C -17.3 °C 34533.8 hPa NNE 6 km/h 6 km/h 34 % 0 mm
15:43 -8.3 °C -17.2 °C 34567.7 hPa South 6 km/h 6 km/h 34 % 0 mm
15:53 -8.3 °C -17.4 °C 34567.7 hPa WSW 15 km/h 15 km/h 33 % 0 mm
16:03 -8.2 °C -17.3 °C 34567.7 hPa NNE 15 km/h 15 km/h 33 % 0 mm
16:08 -8.1 °C -17.2 °C 34567.7 hPa WSW 15 km/h 15 km/h 33 % 0 mm
16:13 -8.5 °C -17.8 °C 34567.7 hPa SSW 17.9 km/h 17.9 km/h 32 % 0 mm
16:18 -8.4 °C -17.7 °C 34567.7 hPa ESE 9 km/h 9 km/h 32 % 0 mm
16:23 -8.5 °C -17.4 °C 34567.7 hPa South 20.9 km/h 20.9 km/h 34 % 0 mm
16:28 -8.6 °C -17.4 °C 34601.5 hPa WSW 15.6 km/h 15.6 km/h 34 % 0 mm
16:33 -8.8 °C -17.4 °C 34601.5 hPa WSW 20.9 km/h 20.9 km/h 35 % 0 mm
16:38 -8.7 °C -17.3 °C 34601.5 hPa SW 9 km/h 9 km/h 35 % 0 mm
16:43 -8.8 °C -17.4 °C 34601.5 hPa SSW 15 km/h 15 km/h 35 % 0 mm
16:48 -8.8 °C -17.4 °C 34601.5 hPa WSW 29.8 km/h 29.8 km/h 35 % 0 mm
16:53 -9.1 °C -17.7 °C 34601.5 hPa SSW 17.9 km/h 17.9 km/h 35 % 0 mm
16:58 -9.1 °C -17.6 °C 34601.5 hPa SSW 25.4 km/h 25.4 km/h 35 % 0 mm
17:03 -9.1 °C -17.7 °C 34601.5 hPa WSW 31.9 km/h 31.9 km/h 35 % 0 mm
17:08 -9.2 °C -17.8 °C 34601.5 hPa WSW 20.9 km/h 20.9 km/h 35 % 0 mm
17:13 -9.3 °C -17.9 °C 34601.5 hPa SSW 23.8 km/h 23.8 km/h 35 % 0 mm
17:18 -9.4 °C -17.9 °C 34601.5 hPa SW 20.9 km/h 20.9 km/h 35 % 0 mm
17:23 -9.5 °C -18 °C 34601.5 hPa SW 15 km/h 15 km/h 35 % 0 mm
17:28 -9.6 °C -18.1 °C 34601.5 hPa SW 20.9 km/h 20.9 km/h 35 % 0 mm
17:33 -9.6 °C -18.1 °C 34601.5 hPa WSW 15 km/h 15 km/h 35 % 0 mm
17:38 -9.6 °C -18.1 °C 34601.5 hPa WSW 23.8 km/h 23.8 km/h 35 % 0 mm
17:43 -9.7 °C -18.2 °C 34601.5 hPa SW 26.9 km/h 26.9 km/h 35 % 0 mm
17:48 -9.8 °C -18.1 °C 34601.5 hPa West 20.9 km/h 20.9 km/h 36 % 0 mm
17:53 -9.9 °C -18.2 °C 34601.5 hPa WSW 15 km/h 15 km/h 36 % 0 mm
17:58 -9.9 °C -18.2 °C 34601.5 hPa WSW 15 km/h 15 km/h 36 % 0 mm
18:03 -10 °C -18.1 °C 34601.5 hPa SW 15 km/h 15 km/h 37 % 0 mm
18:08 -10.1 °C -18.2 °C 34601.5 hPa WSW 17.9 km/h 17.9 km/h 37 % 0 mm
18:13 -10.2 °C -18.2 °C 34601.5 hPa SW 15 km/h 15 km/h 37 % 0 mm
18:18 -10.4 °C -18.2 °C 34601.5 hPa WSW 17.9 km/h 17.9 km/h 38 % 0 mm
18:28 -10.7 °C -18.2 °C 34601.5 hPa SW 16.1 km/h 16.1 km/h 39 % 0 mm
18:38 -10.8 °C -18.2 °C 34601.5 hPa SSW 11.9 km/h 11.9 km/h 40 % 0 mm
18:43 -10.9 °C -18.1 °C 34601.5 hPa SW 15 km/h 15 km/h 41 % 0 mm
18:48 -11 °C -18.2 °C 34601.5 hPa SW 15.6 km/h 15.6 km/h 41 % 0 mm
18:53 -11.1 °C -18.1 °C 34601.5 hPa WSW 15 km/h 15 km/h 42 % 0 mm
18:58 -11.2 °C -18.2 °C 34601.5 hPa WSW 15.3 km/h 15.3 km/h 42 % 0 mm
19:03 -11.3 °C -18.2 °C 34601.5 hPa SW 9 km/h 9 km/h 42 % 0 mm
19:08 -11.3 °C -18.1 °C 34601.5 hPa WSW 9 km/h 9 km/h 43 % 0 mm
19:13 -11.5 °C -18.2 °C 34601.5 hPa SW 8 km/h 8 km/h 43 % 0 mm
19:18 -11.6 °C -18.1 °C 34601.5 hPa SSW 15 km/h 15 km/h 44 % 0 mm
19:23 -11.6 °C -18 °C 34601.5 hPa SW 11.9 km/h 11.9 km/h 45 % 0 mm
19:28 -11.7 °C -18.1 °C 34601.5 hPa WSW 9 km/h 9 km/h 45 % 0 mm
19:33 -11.7 °C -18.1 °C 34601.5 hPa WSW 9 km/h 9 km/h 45 % 0 mm
19:38 -11.8 °C -18.2 °C 34601.5 hPa SW 9 km/h 9 km/h 45 % 0 mm
19:43 -11.9 °C -18.1 °C 34601.5 hPa WSW 11.9 km/h 11.9 km/h 46 % 0 mm
19:48 -12 °C -18 °C 34601.5 hPa SW 11.9 km/h 11.9 km/h 47 % 0 mm
19:53 -12.1 °C -18.1 °C 34601.5 hPa SW 9.8 km/h 9.8 km/h 47 % 0 mm
19:58 -12.1 °C -17.9 °C 34601.5 hPa West 9.3 km/h 9.3 km/h 48 % 0 mm
20:03 -12.2 °C -18 °C 34601.5 hPa WSW 9 km/h 9 km/h 48 % 0 mm
20:08 -12.2 °C -17.9 °C 34601.5 hPa WSW 9 km/h 9 km/h 49 % 0 mm
20:13 -12.2 °C -17.7 °C 34601.5 hPa SW 9 km/h 9 km/h 50 % 0 mm
20:18 -12.4 °C -17.9 °C 34601.5 hPa SW 11.9 km/h 11.9 km/h 50 % 0 mm
20:23 -12.4 °C -17.9 °C 34601.5 hPa WSW 9 km/h 9 km/h 50 % 0 mm
20:28 -12.4 °C -17.8 °C 34635.4 hPa WSW 9 km/h 9 km/h 51 % 0 mm
20:33 -12.5 °C -17.9 °C 34635.4 hPa WSW 6 km/h 6 km/h 51 % 0 mm
20:38 -12.5 °C -17.9 °C 34635.4 hPa SSW 9 km/h 9 km/h 51 % 0 mm
20:43 -12.6 °C -17.9 °C 34635.4 hPa WSW 6 km/h 6 km/h 51 % 0 mm
20:48 -12.6 °C -17.8 °C 34635.4 hPa SW 9 km/h 9 km/h 52 % 0 mm
20:53 -12.6 °C -17.8 °C 34635.4 hPa WSW 9 km/h 9 km/h 52 % 0 mm
20:58 -12.6 °C -17.8 °C 34635.4 hPa SW 7.6 km/h 7.6 km/h 52 % 0 mm
21:03 -12.6 °C -17.8 °C 34635.4 hPa WSW 9 km/h 9 km/h 52 % 0 mm
21:08 -12.7 °C -17.8 °C 34635.4 hPa SW 9 km/h 9 km/h 53 % 0 mm
21:13 -12.8 °C -17.7 °C 34635.4 hPa WSW 9 km/h 9 km/h 54 % 0 mm
21:18 -12.7 °C -17.5 °C 34635.4 hPa WSW 9 km/h 9 km/h 55 % 0 mm
21:23 -12.8 °C -17.6 °C 34635.4 hPa SW 6 km/h 6 km/h 55 % 0 mm
21:28 -12.8 °C -17.6 °C 34635.4 hPa SW 11.9 km/h 11.9 km/h 55 % 0 mm
21:33 -12.8 °C -17.4 °C 34635.4 hPa SW 7.6 km/h 7.6 km/h 56 % 0 mm
21:38 -12.9 °C -17.6 °C 34635.4 hPa SW 9.3 km/h 9.3 km/h 56 % 0 mm
21:43 -12.9 °C -17.4 °C 34635.4 hPa WSW 6.3 km/h 6.3 km/h 57 % 0 mm
21:48 -13 °C -17.3 °C 34635.4 hPa WSW 6.3 km/h 6.3 km/h 58 % 0 mm
21:58 -13 °C -17.2 °C 34635.4 hPa WSW 6 km/h   59 % 0 mm
22:03 -13 °C -17.2 °C 34635.4 hPa WSW 6 km/h 6 km/h 59 % 0 mm
22:08 -13.1 °C -17.3 °C 34635.4 hPa SW 6 km/h 6 km/h 59 % 0 mm
22:13 -13.1 °C -17 °C 34635.4 hPa East 6 km/h   61 % 0 mm
22:18 -13.1 °C -17.1 °C 34635.4 hPa ESE 7.6 km/h 7.6 km/h 61 % 0 mm
22:23 -13.2 °C -17.1 °C 34635.4 hPa East 6 km/h 6 km/h 61 % 0 mm
22:28 -13.2 °C -17.2 °C 34635.4 hPa East 3.1 km/h   61 % 0 mm
22:33 -13.2 °C -17.2 °C 34635.4 hPa ENE 6 km/h 6 km/h 61 % 0 mm
22:38 -13.3 °C -17.3 °C 34635.4 hPa ENE 3.7 km/h 3.7 km/h 61 % 0 mm
22:43 -13.4 °C -17.4 °C 34635.4 hPa NE 3.1 km/h 3.1 km/h 61 % 0 mm
22:48 -13.5 °C -17.4 °C 34635.4 hPa Calm     61 % 0 mm
22:53 -13.6 °C -17.6 °C 34635.4 hPa Calm     60 % 0 mm
23:03 -13.7 °C -17.6 °C 34635.4 hPa Calm     61 % 0 mm
23:08 -13.7 °C -17.7 °C 34635.4 hPa Calm     60 % 0 mm
23:13 -13.8 °C -17.7 °C 34601.5 hPa Calm     61 % 0 mm
23:18 -13.8 °C -17.7 °C 34601.5 hPa Calm     61 % 0 mm
23:23 -13.8 °C -17.7 °C 34601.5 hPa Calm     61 % 0 mm
23:28 -13.8 °C -17.7 °C 34635.4 hPa Calm     61 % 0 mm
23:33 -13.9 °C -17.8 °C 34635.4 hPa Calm     61 % 0 mm
23:38 -13.9 °C -17.8 °C 34635.4 hPa Calm     61 % 0 mm
23:43 -13.9 °C -17.8 °C 34635.4 hPa Calm     61 % 0 mm
23:48 -14 °C -17.9 °C 34635.4 hPa NE 3.1 km/h 3.1 km/h 61 % 0 mm
23:53 -14 °C -17.9 °C 34635.4 hPa Calm     61 % 0 mm
23:58 -14.1 °C -17.9 °C 34601.5 hPa Calm     61 % 0 mm
Meteo Sesrovires
Elogis d' Weather Underground - 2 mb

Guio original per  Jim McMurry - jmcmurry@mwt.net Adaptat per a la plantilla per  Wim van der Kuil - Leuven-Template.eu

Trobareu la nostra informacio del temps tambe a:

Weather Underground

AWEKAS